Trail, Minnesota
Current Conditions -  °F | °C
As of 12:16 PM on Friday 19 Dec 2014 (Local Time) from KFSE Reporting Station
Haze Haze  
Wind Chill: 13°   Ceiling: 800
Heat Index: 23°   Visibility: 2mi
Dew Point: 21°   Wind: 9mph
Humidity: 93%   Direction: 140°SE
Pressure: 30.07"   Gusts: NA
Location:  47.78°N, 95.69°W
Report Text: KFSE 191816Z AUTO 14008KT 2SM BR OVC008 M05/M06 A3007 RMK AO2
Loading
Personal Weather Stations






























Interactive Weather Map New forecast layout! Learn more

10-Day Weather Forecast

Advertisements
Track Severe Weather on mobile